首页
METAR-TAF:

METAR-TAF

机场 :

Valdosta Regional Airport

Valdosta, 喬治亞, 美国

纬度: 30-47N, 经度: 083-17W, 海拔: 62米

当前天气观测

该预报发布于19分钟前的10:23 UTC
风速6节,风向东转东北
温度 23°C
湿度 89%
气压 1013 hPa
能見度: 16.1公里
多云层高于1200英尺
阴天层高于9000英尺

METAR: KVLD 261023Z AUTO 06006KT 10SM BKN012 OVC090 23/21 A2992 RMK AO2 T02330206 $

时间: 06:42 (10:42 UTC)

预报

该预报发布于5小时和14分钟前的05:28 UTC
预报有效从26日的 06点(UTC)到 27日的 06点(UTC)
风速3节,风向
能見度: 10公里
多云层高于2500英尺
从 26日的 1800点(UTC)
风速8节,风向
能見度: 10公里
多云层高于2500英尺, 积雨云.
附近有雷暴
从 27日的 0000点(UTC)
风速7节,风向东转东北
能見度: 10公里
多云层高于1500英尺

TAF: KVLD 260528Z 2606/2706 09003KT P6SM BKN025 FM261800 08008KT P6SM VCTS BKN025CB FM270000 07007KT P6SM BKN015

超过4000个机场的气象观测和天气预报(METAR&TAF报告)。

可查询的气象台以黄色和红色小点在地图上表示。

将鼠标移到小点上方,可查看气象台名称。

然后点击查看天气观测和预报。

如需切换地图:点击带黑十字的绿色按钮放大地图;点击带横线的绿色按钮缩小地图;或者点击绿色箭头查看邻近地区的地图。


METAR-TAF: